Time;durP1;ratioP1;P1;durP2;ratioP2;P2;SDS_P1;SDS_P2;PMS_P1;PMS_P2;Temp;Humidity;BMP_temperature;BMP_pressure;BME280_temperature;BME280_humidity;BME280_pressure;Samples;Min_cycle;Max_cycle;Signal;HPM_P1;HPM_P2
2023/06/02 00:00:52;;;;;;;;;;;;;;;17.59;39.98;102100.47;7355047;19;20794;-56
2023/06/02 00:03:18;;;;;;;;;;;;;;;17.55;40.34;102099.69;7355967;19;19922;-56
2023/06/02 00:05:44;;;;;;;;;;;;;;;17.52;40.12;102093.63;7351441;19;19919;-56
2023/06/02 00:08:10;;;;;;;;;;;;;;;17.49;40.41;102105.16;7350961;19;19934;-56
2023/06/02 00:10:36;;;;;;;;;;;;;;;17.45;40.38;102102.66;7353182;19;19927;-56
2023/06/02 00:13:02;;;;;;;;;;;;;;;17.42;40.52;102102.72;7349726;19;19927;-56
2023/06/02 00:15:29;;;;;;;;;;;;;;;17.37;40.74;102101.09;7352900;19;19982;-56
2023/06/02 00:17:54;;;;;;;;;;;;;;;17.32;40.35;102103.00;7351661;19;19958;-56
2023/06/02 00:20:26;;;;;;;;;;;;;;;17.29;40.45;102097.81;7344123;19;19918;-56
2023/06/02 00:22:51;;;;;;;;;;;;;;;17.26;40.57;102102.31;7354657;19;19927;-56
2023/06/02 00:25:16;;;;;;;;;;;;;;;17.22;41.03;102106.81;7349366;19;20332;-56
2023/06/02 00:27:41;;;;;;;;;;;;;;;17.19;40.97;102104.25;7353072;19;20668;-56
2023/06/02 00:30:07;;;;;;;;;;;;;;;17.17;41.02;102106.06;7350164;19;19919;-56
2023/06/02 00:32:32;;;;;;;;;;;;;;;17.12;40.71;102105.31;7351121;19;19918;-56
2023/06/02 00:34:57;;;;;;;;;;;;;;;17.09;41.18;102102.78;7350988;19;19931;-56
2023/06/02 00:37:23;;;;;;;;;;;;;;;17.06;41.00;102106.38;7354177;19;19926;-56
2023/06/02 00:39:48;;;;;;;;;;;;;;;17.02;41.19;102109.13;7350427;19;20657;-56
2023/06/02 00:42:14;;;;;;;;;;;;;;;16.98;41.06;102105.72;7353288;19;19923;-56
2023/06/02 00:44:39;;;;;;;;;;;;;;;16.95;41.23;102105.78;7344575;19;19923;-56
2023/06/02 00:47:05;;;;;;;;;;;;;;;16.92;41.20;102105.00;7353284;19;19959;-56
2023/06/02 00:49:30;;;;;;;;;;;;;;;16.88;41.13;102100.72;7353472;19;19933;-55
2023/06/02 00:51:57;;;;;;;;;;;;;;;16.84;40.92;102100.81;7350566;19;20407;-56
2023/06/02 00:54:22;;;;;;;;;;;;;;;16.80;40.92;102104.44;7352015;19;19944;-56
2023/06/02 00:56:47;;;;;;;;;;;;;;;16.76;40.91;102108.03;7348117;19;19952;-56
2023/06/02 00:59:13;;;;;;;;;;;;;;;16.72;41.24;102106.38;7353460;19;20488;-56
2023/06/02 01:01:39;;;;;;;;;;;;;;;16.68;40.63;102111.78;7350303;19;19915;-56
2023/06/02 01:04:05;;;;;;;;;;;;;;;16.65;41.19;102109.19;7348575;19;22543;-56
2023/06/02 01:06:36;;;;;;;;;;;;;;;16.60;41.28;102106.69;7346637;19;19925;-56
2023/06/02 01:09:12;;;;;;;;;;;;;;;16.56;41.13;102099.75;7351715;19;19954;-56
2023/06/02 01:11:37;;;;;;;;;;;;;;;16.53;41.31;102110.38;7350023;19;19941;-56
2023/06/02 01:14:03;;;;;;;;;;;;;;;16.49;40.95;102104.31;7345867;19;20574;-56
2023/06/02 01:16:29;;;;;;;;;;;;;;;16.46;41.05;102104.38;7349504;19;19937;-56
2023/06/02 01:18:55;;;;;;;;;;;;;;;16.43;41.15;102109.75;7353131;19;19930;-56
2023/06/02 01:21:23;;;;;;;;;;;;;;;16.39;41.43;102110.72;7349600;19;19923;-56
2023/06/02 01:23:51;;;;;;;;;;;;;;;16.35;41.10;102112.56;7352800;19;19923;-56
2023/06/02 01:26:16;;;;;;;;;;;;;;;16.30;41.45;102103.88;7350463;19;19939;-56
2023/06/02 01:28:42;;;;;;;;;;;;;;;16.28;41.50;102116.25;7350978;19;19921;-56
2023/06/02 01:31:15;;;;;;;;;;;;;;;16.25;41.11;102111.03;7350596;19;19922;-56
2023/06/02 01:33:59;;;;;;;;;;;;;;;16.21;41.48;102112.00;7348530;19;19911;-56
2023/06/02 01:36:27;;;;;;;;;;;;;;;16.18;41.38;102104.19;7348328;19;19919;-56
2023/06/02 01:38:53;;;;;;;;;;;;;;;16.15;41.59;102103.38;7349855;19;20474;-56
2023/06/02 01:41:19;;;;;;;;;;;;;;;16.13;41.35;102105.22;7353440;19;19926;-56
2023/06/02 01:43:45;;;;;;;;;;;;;;;16.09;41.13;102104.41;7351683;19;19922;-56
2023/06/02 01:46:11;;;;;;;;;;;;;;;16.06;41.56;102099.19;7358169;19;19923;-55
2023/06/02 01:48:36;;;;;;;;;;;;;;;16.03;41.71;102107.19;7354870;19;20263;-56
2023/06/02 01:51:02;;;;;;;;;;;;;;;16.00;41.17;102104.59;7354804;19;20626;-56
2023/06/02 01:53:27;;;;;;;;;;;;;;;15.97;41.42;102104.69;7355139;19;20034;-55
2023/06/02 01:55:53;;;;;;;;;;;;;;;15.93;41.58;102101.25;7355743;19;19948;-56
2023/06/02 01:58:18;;;;;;;;;;;;;;;15.91;41.35;102103.03;7348217;19;19950;-57
2023/06/02 02:00:44;;;;;;;;;;;;;;;15.90;41.46;102108.34;7352028;19;20353;-56
2023/06/02 02:03:09;;;;;;;;;;;;;;;15.83;41.48;102105.88;7359311;19;19973;-56
2023/06/02 02:05:34;;;;;;;;;;;;;;;15.81;41.66;102102.41;7355383;19;19918;-56
2023/06/02 02:08:00;;;;;;;;;;;;;;;15.79;41.42;102104.19;7351844;19;19934;-56
2023/06/02 02:10:26;;;;;;;;;;;;;;;15.58;41.49;102079.16;7356832;19;19926;-57
2023/06/02 02:12:51;;;;;;;;;;;;;;;15.73;41.42;102101.69;7359596;19;19919;-56
2023/06/02 02:15:17;;;;;;;;;;;;;;;15.71;41.72;102102.63;7353906;19;20502;-57
2023/06/02 02:17:44;;;;;;;;;;;;;;;15.67;41.71;102104.47;7353253;19;20316;-56
2023/06/02 02:20:10;;;;;;;;;;;;;;;15.65;41.92;102098.34;7355098;19;19918;-56
2023/06/02 02:22:36;;;;;;;;;;;;;;;15.63;42.08;102105.44;7358154;19;20330;-56
2023/06/02 02:25:02;;;;;;;;;;;;;;;15.60;41.98;102100.19;7355856;19;19910;-56
2023/06/02 02:27:27;;;;;;;;;;;;;;;15.57;41.80;102100.28;7355094;19;19925;-56
2023/06/02 02:29:53;;;;;;;;;;;;;;;15.54;41.47;102105.59;7356618;19;20633;-56
2023/06/02 02:32:18;;;;;;;;;;;;;;;15.51;42.36;102108.25;7354087;19;19971;-56
2023/06/02 02:34:46;;;;;;;;;;;;;;;15.47;42.38;102104.84;7355093;19;20453;-56
2023/06/02 02:37:12;;;;;;;;;;;;;;;15.45;42.09;102105.75;7354673;19;19969;-57
2023/06/02 02:39:37;;;;;;;;;;;;;;;15.42;42.32;102103.22;7348938;19;19922;-56
2023/06/02 02:42:03;;;;;;;;;;;;;;;15.39;42.41;102095.38;7356190;19;20025;-56
2023/06/02 02:44:28;;;;;;;;;;;;;;;15.36;42.65;102105.94;7355699;19;19927;-56
2023/06/02 02:46:53;;;;;;;;;;;;;;;15.35;42.59;102114.75;7353567;19;19938;-56
2023/06/02 02:49:18;;;;;;;;;;;;;;;15.31;42.19;102120.09;7357805;19;19937;-56
2023/06/02 02:51:44;;;;;;;;;;;;;;;15.29;42.47;102121.88;7352230;19;19915;-56
2023/06/02 02:54:09;;;;;;;;;;;;;;;15.27;42.41;102123.69;7346767;19;19938;-56
2023/06/02 02:56:36;;;;;;;;;;;;;;;15.26;42.67;102121.94;7356452;19;19911;-56
2023/06/02 02:59:02;;;;;;;;;;;;;;;15.23;43.00;102126.41;7331369;19;21088;-56
2023/06/02 03:01:27;;;;;;;;;;;;;;;15.20;42.84;102124.66;7357302;19;19953;-55
2023/06/02 03:03:53;;;;;;;;;;;;;;;15.17;42.98;102116.84;7353180;19;19911;-56
2023/06/02 03:06:19;;;;;;;;;;;;;;;15.16;43.04;102119.53;7355281;19;19922;-56
2023/06/02 03:08:45;;;;;;;;;;;;;;;15.14;42.81;102116.91;7354644;19;19953;-56
2023/06/02 03:11:11;;;;;;;;;;;;;;;15.10;42.79;102115.22;7349497;19;19911;-56
2023/06/02 03:13:36;;;;;;;;;;;;;;;15.08;42.78;102116.16;7350600;19;19926;-56
2023/06/02 03:16:02;;;;;;;;;;;;;;;15.06;42.88;102116.19;7335471;19;21075;-56
2023/06/02 03:18:28;;;;;;;;;;;;;;;15.03;42.26;102108.34;7354105;19;20546;-56
2023/06/02 03:20:54;;;;;;;;;;;;;;;15.00;42.67;102108.41;7347647;19;19951;-56
2023/06/02 03:23:19;;;;;;;;;;;;;;;14.98;42.65;102115.47;7356060;19;20016;-56
2023/06/02 03:25:45;;;;;;;;;;;;;;;14.96;42.41;102117.25;7355154;19;19998;-55
2023/06/02 03:28:10;;;;;;;;;;;;;;;14.95;42.85;102120.75;7354535;19;19918;-56
2023/06/02 03:30:35;;;;;;;;;;;;;;;14.92;42.58;102120.84;7358034;19;19914;-56
2023/06/02 03:33:00;;;;;;;;;;;;;;;14.91;42.13;102119.09;7352088;19;19934;-55
2023/06/02 03:35:26;;;;;;;;;;;;;;;14.91;43.13;102127.00;7352539;19;19915;-56
2023/06/02 03:37:51;;;;;;;;;;;;;;;14.91;42.98;102119.09;7356581;19;20757;-56
2023/06/02 03:40:16;;;;;;;;;;;;;;;14.90;42.95;102122.59;7351416;19;20266;-54
2023/06/02 03:42:41;;;;;;;;;;;;;;;14.90;43.30;102127.88;7346074;19;19919;-56
2023/06/02 03:45:07;;;;;;;;;;;;;;;14.90;43.27;102118.25;7354154;19;20026;-55
2023/06/02 03:47:32;;;;;;;;;;;;;;;14.91;43.32;102119.09;7351813;19;19972;-56
2023/06/02 03:49:57;;;;;;;;;;;;;;;14.91;43.28;102122.59;7353014;19;19919;-56
2023/06/02 03:52:24;;;;;;;;;;;;;;;14.90;43.50;102114.72;7356401;19;19915;-56
2023/06/02 03:54:49;;;;;;;;;;;;;;;14.62;43.41;102065.25;7350419;19;19923;-56
2023/06/02 03:57:15;;;;;;;;;;;;;;;14.90;43.32;102109.47;7353828;19;19919;-56
2023/06/02 03:59:40;;;;;;;;;;;;;;;14.89;43.25;102110.38;7349630;19;20865;-56
2023/06/02 04:02:06;;;;;;;;;;;;;;;14.88;42.94;102113.91;7353681;19;19911;-56
2023/06/02 04:04:31;;;;;;;;;;;;;;;14.86;43.55;102115.69;7355370;19;22114;-56
2023/06/02 04:06:57;;;;;;;;;;;;;;;14.86;43.94;102120.97;7351673;19;19911;-56
2023/06/02 04:09:22;;;;;;;;;;;;;;;14.83;43.50;102123.63;7355729;19;19925;-56
2023/06/02 04:11:47;;;;;;;;;;;;;;;14.82;43.82;102129.78;7353389;19;20001;-56
2023/06/02 04:14:13;;;;;;;;;;;;;;;14.78;43.76;102124.56;7354824;19;20007;-56
2023/06/02 04:16:38;;;;;;;;;;;;;;;14.77;43.04;102125.47;7356469;19;19925;-55
2023/06/02 04:19:05;;;;;;;;;;;;;;;14.75;43.83;102127.28;7353478;19;19947;-56
2023/06/02 04:21:30;;;;;;;;;;;;;;;14.73;43.39;102131.66;7353560;19;20307;-55
2023/06/02 04:23:55;;;;;;;;;;;;;;;14.70;43.68;102131.75;7356193;19;19922;-56
2023/06/02 04:26:21;;;;;;;;;;;;;;;14.68;44.27;102125.63;7353805;19;19959;-56
2023/06/02 04:28:46;;;;;;;;;;;;;;;14.68;44.35;102135.28;7350932;19;20510;-56
2023/06/02 04:31:11;;;;;;;;;;;;;;;14.67;43.97;102126.53;7354932;19;19922;-56
2023/06/02 04:33:37;;;;;;;;;;;;;;;14.68;44.02;102127.38;7352144;19;19921;-56
2023/06/02 04:36:03;;;;;;;;;;;;;;;14.70;44.12;102131.75;7351191;19;20462;-57
2023/06/02 04:38:28;;;;;;;;;;;;;;;14.71;44.19;102133.47;7354341;19;19925;-56
2023/06/02 04:40:56;;;;;;;;;;;;;;;14.74;44.56;102138.66;7353576;19;19915;-56
2023/06/02 04:43:21;;;;;;;;;;;;;;;14.77;44.54;102138.63;7356403;19;19914;-56
2023/06/02 04:45:47;;;;;;;;;;;;;;;14.81;43.95;102136.81;7348582;19;19935;-56
2023/06/02 04:48:12;;;;;;;;;;;;;;;14.85;44.55;102132.34;7352349;19;19923;-56
2023/06/02 04:50:38;;;;;;;;;;;;;;;14.88;44.77;102140.19;7351888;19;20320;-54
2023/06/02 04:53:03;;;;;;;;;;;;;;;14.91;44.57;102133.13;7355035;19;19951;-56
2023/06/02 04:55:28;;;;;;;;;;;;;;;14.93;43.67;102125.19;7349680;19;19947;-56
2023/06/02 04:57:53;;;;;;;;;;;;;;;14.95;44.54;102123.41;7355132;19;20006;-56
2023/06/02 05:00:19;;;;;;;;;;;;;;;14.95;44.08;102121.66;7354223;19;19943;-56
2023/06/02 05:02:45;;;;;;;;;;;;;;;14.96;44.24;102127.78;7350715;19;19922;-56
2023/06/02 05:05:11;;;;;;;;;;;;;;;14.96;44.40;102138.31;7352319;19;19919;-56
2023/06/02 05:07:36;;;;;;;;;;;;;;;14.97;44.56;102138.28;7349012;19;19952;-56
2023/06/02 05:10:01;;;;;;;;;;;;;;;14.99;45.03;102144.34;7352945;19;19922;-55
2023/06/02 05:12:27;;;;;;;;;;;;;;;14.73;44.83;102084.34;7353904;19;19911;-56
2023/06/02 05:14:53;;;;;;;;;;;;;;;15.06;44.65;102145.13;7351809;19;19921;-56
2023/06/02 05:17:26;;;;;;;;;;;;;;;15.10;45.18;102140.66;7352034;19;19922;-56
2023/06/02 05:19:53;;;;;;;;;;;;;;;15.13;44.92;102138.84;7350087;19;19915;-55
2023/06/02 05:22:18;;;;;;;;;;;;;;;15.16;44.75;102146.72;7352331;19;19914;-56
2023/06/02 05:24:44;;;;;;;;;;;;;;;15.20;45.19;102137.81;7353099;19;19914;-56
2023/06/02 05:27:09;;;;;;;;;;;;;;;15.24;44.73;102138.66;7347143;19;19915;-56
2023/06/02 05:29:34;;;;;;;;;;;;;;;15.27;44.96;102134.19;7349842;19;19933;-56
2023/06/02 05:31:59;;;;;;;;;;;;;;;15.31;44.63;102135.03;7350111;19;20431;-56
2023/06/02 05:34:25;;;;;;;;;;;;;;;15.35;44.55;102135.81;7352603;19;19934;-56
2023/06/02 05:36:50;;;;;;;;;;;;;;;15.37;44.70;102139.28;7351597;19;20555;-56
2023/06/02 05:39:16;;;;;;;;;;;;;;;15.39;44.90;102142.75;7350243;19;20502;-56
2023/06/02 05:41:42;;;;;;;;;;;;;;;15.39;44.67;102143.63;7351687;19;19919;-56
2023/06/02 05:44:07;;;;;;;;;;;;;;;15.40;44.47;102150.59;7351156;19;19937;-56
2023/06/02 05:46:32;;;;;;;;;;;;;;;15.43;44.50;102154.97;7350843;19;19919;-56
2023/06/02 05:48:58;;;;;;;;;;;;;;;15.44;44.58;102151.44;7350735;19;19923;-56
2023/06/02 05:51:23;;;;;;;;;;;;;;;15.45;44.48;102151.38;7351937;19;20679;-56
2023/06/02 05:53:51;;;;;;;;;;;;;;;15.48;44.40;102155.75;7346517;19;19947;-56
2023/06/02 05:56:17;;;;;;;;;;;;;;;15.51;44.92;102153.03;7350853;19;20029;-55
2023/06/02 05:58:42;;;;;;;;;;;;;;;15.53;44.86;102152.13;7340730;19;20546;-56
2023/06/02 06:01:09;;;;;;;;;;;;;;;15.55;44.59;102144.16;7350970;19;20315;-56
2023/06/02 06:03:34;;;;;;;;;;;;;;;15.58;44.78;102152.88;7353310;19;19918;-56
2023/06/02 06:06:00;;;;;;;;;;;;;;;15.63;44.35;102158.09;7349380;19;20450;-56
2023/06/02 06:08:25;;;;;;;;;;;;;;;15.66;44.59;102147.50;7350252;19;19914;-56
2023/06/02 06:10:50;;;;;;;;;;;;;;;15.69;44.69;102151.84;7350896;19;20426;-56
2023/06/02 06:13:15;;;;;;;;;;;;;;;15.72;44.31;102152.66;7352215;19;19953;-56
2023/06/02 06:15:41;;;;;;;;;;;;;;;15.75;44.33;102144.66;7337288;19;20015;-56
2023/06/02 06:18:06;;;;;;;;;;;;;;;15.77;44.22;102150.78;7348995;19;19943;-55
2023/06/02 06:20:31;;;;;;;;;;;;;;;15.80;44.22;102150.69;7346693;19;19934;-56
2023/06/02 06:22:56;;;;;;;;;;;;;;;15.83;44.57;102153.28;7350360;19;19929;-55
2023/06/02 06:25:22;;;;;;;;;;;;;;;15.88;44.75;102152.31;7348582;19;19942;-56
2023/06/02 06:27:47;;;;;;;;;;;;;;;15.91;45.15;102146.97;7348628;19;19964;-56
2023/06/02 06:30:12;;;;;;;;;;;;;;;15.95;45.00;102148.63;7351521;19;19926;-56
2023/06/02 06:32:38;;;;;;;;;;;;;;;15.99;44.00;102145.03;7358060;19;20360;-56
2023/06/02 06:35:03;;;;;;;;;;;;;;;16.05;44.29;102144.91;7350230;19;20251;-56
2023/06/02 06:37:28;;;;;;;;;;;;;;;16.08;44.65;102145.72;7356308;19;19934;-56
2023/06/02 06:39:54;;;;;;;;;;;;;;;16.12;45.00;102141.25;7357236;19;19940;-56
2023/06/02 06:42:21;;;;;;;;;;;;;;;16.16;44.33;102150.78;7350741;19;19927;-56
2023/06/02 06:44:47;;;;;;;;;;;;;;;16.20;44.40;102149.81;7357726;19;19925;-56
2023/06/02 06:47:12;;;;;;;;;;;;;;;16.25;44.87;102161.13;7354268;19;19919;-56
2023/06/02 06:49:38;;;;;;;;;;;;;;;16.29;44.56;102160.16;7335443;19;19915;-56
2023/06/02 06:52:03;;;;;;;;;;;;;;;16.35;44.16;102159.16;7354260;19;19922;-57
2023/06/02 06:54:28;;;;;;;;;;;;;;;16.40;44.48;102161.69;7349083;19;20476;-56
2023/06/02 06:56:53;;;;;;;;;;;;;;;16.45;44.72;102165.06;7359717;19;20352;-56
2023/06/02 06:59:19;;;;;;;;;;;;;;;16.15;44.27;102101.63;7353127;19;19950;-56
2023/06/02 07:01:44;;;;;;;;;;;;;;;16.54;44.33;102162.22;7356146;19;19930;-56
2023/06/02 07:04:10;;;;;;;;;;;;;;;16.58;44.58;102166.53;7356389;19;19927;-54
2023/06/02 07:06:36;;;;;;;;;;;;;;;16.61;44.68;102166.44;7355840;19;19927;-56
2023/06/02 07:09:01;;;;;;;;;;;;;;;16.66;44.77;102164.53;7361566;19;20263;-56
2023/06/02 07:11:27;;;;;;;;;;;;;;;16.70;44.27;102166.22;7358258;19;19918;-56
2023/06/02 07:13:52;;;;;;;;;;;;;;;16.73;44.35;102163.53;7356569;19;19948;-56
2023/06/02 07:16:17;;;;;;;;;;;;;;;16.42;44.23;102112.41;7354543;19;19951;-56
2023/06/02 07:18:42;;;;;;;;;;;;;;;16.81;44.37;102174.75;7356356;19;19922;-56
2023/06/02 07:21:08;;;;;;;;;;;;;;;16.83;44.12;102162.41;7359225;19;19928;-56
2023/06/02 07:23:33;;;;;;;;;;;;;;;16.87;44.21;102171.09;7359480;19;20016;-56
2023/06/02 07:25:58;;;;;;;;;;;;;;;16.93;44.46;102162.13;7358611;19;19922;-55
2023/06/02 07:28:23;;;;;;;;;;;;;;;16.96;44.68;102168.22;7359112;19;19934;-56
2023/06/02 07:30:51;;;;;;;;;;;;;;;17.02;44.16;102160.13;7355766;19;20350;-56
2023/06/02 07:33:17;;;;;;;;;;;;;;;17.08;44.23;102151.19;7358545;19;20635;-56
2023/06/02 07:35:42;;;;;;;;;;;;;;;17.12;44.11;102155.47;7357399;19;19915;-56
2023/06/02 07:38:07;;;;;;;;;;;;;;;17.19;43.72;102158.84;7360273;19;19927;-56
2023/06/02 07:40:32;;;;;;;;;;;;;;;17.25;43.53;102148.97;7334694;19;21503;-56
2023/06/02 07:42:58;;;;;;;;;;;;;;;17.30;44.17;102152.34;7359281;19;19930;-56
2023/06/02 07:45:23;;;;;;;;;;;;;;;17.37;43.69;102147.75;7356980;19;19927;-58
2023/06/02 07:47:48;;;;;;;;;;;;;;;17.42;43.58;102151.13;7358969;19;19918;-56
2023/06/02 07:50:13;;;;;;;;;;;;;;;17.48;43.74;102150.09;7357548;19;19946;-56
2023/06/02 07:52:39;;;;;;;;;;;;;;;17.53;44.34;102153.47;7358371;19;19923;-56
2023/06/02 07:55:04;;;;;;;;;;;;;;;17.60;44.23;102160.31;7355178;19;19923;-57
2023/06/02 07:57:30;;;;;;;;;;;;;;;17.67;43.68;102155.72;7359091;19;20493;-56
2023/06/02 07:59:55;;;;;;;;;;;;;;;17.72;43.93;102173.16;7361016;19;20281;-56
2023/06/02 08:02:20;;;;;;;;;;;;;;;17.77;43.31;102166.00;7359538;19;19998;-56
2023/06/02 08:04:46;;;;;;;;;;;;;;;17.80;43.77;102165.94;7359894;19;19928;-56
2023/06/02 08:07:11;;;;;;;;;;;;;;;17.83;43.43;102168.47;7359215;19;19940;-57
2023/06/02 08:09:36;;;;;;;;;;;;;;;17.87;42.63;102170.09;7354632;19;19918;-56
2023/06/02 08:12:01;;;;;;;;;;;;;;;17.89;43.37;102165.66;7359662;19;20380;-56
2023/06/02 08:14:27;;;;;;;;;;;;;;;17.93;43.10;102170.84;7357273;19;19954;-56
2023/06/02 08:16:55;;;;;;;;;;;;;;;17.95;43.38;102171.69;7359511;19;19926;-56
2023/06/02 08:19:20;;;;;;;;;;;;;;;18.00;43.24;102172.41;7356365;19;20368;-56
2023/06/02 08:21:46;;;;;;;;;;;;;;;18.04;43.72;102171.38;7358438;19;19974;-55
2023/06/02 08:24:11;;;;;;;;;;;;;;;18.09;43.18;102172.97;7356244;19;19930;-56
2023/06/02 08:26:39;;;;;;;;;;;;;;;18.14;43.22;102167.53;7358142;19;20637;-56
2023/06/02 08:29:08;;;;;;;;;;;;;;;18.21;42.84;102184.97;7358225;19;20734;-56
2023/06/02 08:31:34;;;;;;;;;;;;;;;18.26;43.00;102177.75;7353757;19;19945;-57
2023/06/02 08:34:00;;;;;;;;;;;;;;;18.32;43.35;102177.56;7356930;19;19943;-55
2023/06/02 08:36:26;;;;;;;;;;;;;;;18.38;43.43;102180.00;7356894;19;19919;-57
2023/06/02 08:38:52;;;;;;;;;;;;;;;18.45;43.15;102177.16;7359282;19;19919;-56
2023/06/02 08:41:17;;;;;;;;;;;;;;;18.52;43.31;102178.69;7358989;19;19918;-56
2023/06/02 08:43:44;;;;;;;;;;;;;;;18.58;43.36;102174.06;7357682;19;20318;-56
2023/06/02 08:46:13;;;;;;;;;;;;;;;18.65;42.97;102167.69;7353159;19;19915;-56
2023/06/02 08:48:39;;;;;;;;;;;;;;;18.73;43.12;102167.44;7357447;19;19926;-56
2023/06/02 08:51:07;;;;;;;;;;;;;;;18.79;43.05;102169.88;7357594;19;19915;-56
2023/06/02 08:53:33;;;;;;;;;;;;;;;18.86;42.83;102167.91;7358099;19;20653;-56
2023/06/02 08:55:58;;;;;;;;;;;;;;;18.91;42.88;102171.25;7354578;19;19947;-57
2023/06/02 08:58:26;;;;;;;;;;;;;;;18.99;42.88;102173.63;7357460;19;19923;-56
2023/06/02 09:00:51;;;;;;;;;;;;;;;19.04;42.84;102171.69;7357652;19;19939;-57
2023/06/02 09:03:17;;;;;;;;;;;;;;;19.10;42.63;102172.34;7356361;19;19946;-56
2023/06/02 09:05:43;;;;;;;;;;;;;;;19.15;42.46;102172.16;7354447;19;19927;-57
2023/06/02 09:08:12;;;;;;;;;;;;;;;19.20;42.66;102162.28;7356848;19;19919;-57
2023/06/02 09:10:41;;;;;;;;;;;;;;;19.23;42.58;102167.47;7358689;19;20610;-56
2023/06/02 09:13:10;;;;;;;;;;;;;;;19.27;42.63;102169.09;7356985;19;19923;-56
2023/06/02 09:15:36;;;;;;;;;;;;;;;19.30;42.58;102173.41;7355110;19;20344;-56
2023/06/02 09:18:09;;;;;;;;;;;;;;;19.32;41.99;102172.47;7357163;19;22283;-56
2023/06/02 09:20:37;;;;;;;;;;;;;;;19.34;42.22;102175.91;7358371;19;20000;-56
2023/06/02 09:23:03;;;;;;;;;;;;;;;19.36;42.13;102175.84;7354715;19;19923;-56
2023/06/02 09:25:29;;;;;;;;;;;;;;;19.38;41.79;102172.22;7355312;19;20244;-57
2023/06/02 09:27:56;;;;;;;;;;;;;;;19.40;41.96;102170.38;7356720;19;19915;-56
2023/06/02 09:30:21;;;;;;;;;;;;;;;19.44;42.33;102172.00;7354107;19;19975;-56
2023/06/02 09:32:55;;;;;;;;;;;;;;;19.48;41.92;102172.75;7355383;19;20002;-56
2023/06/02 09:35:42;;;;;;;;;;;;;;;19.53;41.84;102176.13;7355802;19;20643;-56
2023/06/02 09:38:17;;;;;;;;;;;;;;;19.58;41.83;102173.28;7355792;19;19922;-56
2023/06/02 09:40:43;;;;;;;;;;;;;;;19.60;42.01;102177.63;7355325;19;19922;-56
2023/06/02 09:43:12;;;;;;;;;;;;;;;19.62;41.68;102178.47;7356759;19;19946;-56
2023/06/02 09:46:04;;;;;;;;;;;;;;;19.67;41.90;102180.94;7356131;19;19918;-57
2023/06/02 09:48:29;;;;;;;;;;;;;;;19.70;41.95;102176.38;7255814;19;2004502;-56
2023/06/02 09:50:55;;;;;;;;;;;;;;;19.75;41.78;102181.50;7351338;19;19931;-56
2023/06/02 09:53:22;;;;;;;;;;;;;;;19.80;41.85;102174.25;7356995;19;19972;-56
2023/06/02 09:55:48;;;;;;;;;;;;;;;19.88;41.68;102177.47;7354300;19;19963;-56
2023/06/02 09:58:13;;;;;;;;;;;;;;;19.95;41.62;102172.78;7355345;19;19918;-56
2023/06/02 10:00:39;;;;;;;;;;;;;;;20.03;41.90;102175.16;7355651;19;19951;-56
2023/06/02 10:03:06;;;;;;;;;;;;;;;20.09;41.57;102175.78;7354005;19;19919;-56
2023/06/02 10:05:31;;;;;;;;;;;;;;;20.14;41.56;102183.56;7357711;19;19933;-56
2023/06/02 10:08:00;;;;;;;;;;;;;;;20.20;41.56;102176.22;7362240;19;19915;-57
2023/06/02 10:10:30;;;;;;;;;;;;;;;20.31;41.45;102186.41;7360510;19;19931;-56
2023/06/02 10:13:08;;;;;;;;;;;;;;;20.39;41.68;102179.00;7361835;19;19934;-56
2023/06/02 10:15:39;;;;;;;;;;;;;;;20.50;41.82;102185.72;7360416;19;20462;-56
2023/06/02 10:18:07;;;;;;;;;;;;;;;20.62;41.72;102178.09;7361765;19;19986;-56
2023/06/02 10:20:32;;;;;;;;;;;;;;;20.79;41.44;102181.84;7360696;19;19933;-56
2023/06/02 10:22:57;;;;;;;;;;;;;;;20.97;41.89;102181.94;7364798;19;19930;-56
2023/06/02 10:25:41;;;;;;;;;;;;;;;21.17;41.82;102177.56;7358562;19;20327;-57
2023/06/02 10:28:08;;;;;;;;;;;;;;;21.42;41.92;102169.41;7361057;19;19915;-57
2023/06/02 10:30:34;;;;;;;;;;;;;;;21.66;41.80;102170.09;7358221;19;19943;-57
2023/06/02 10:33:00;;;;;;;;;;;;;;;21.91;41.34;102170.69;7361752;19;20588;-57
2023/06/02 10:35:45;;;;;;;;;;;;;;;22.15;41.57;102167.81;7356441;19;19955;-57
2023/06/02 10:38:23;;;;;;;;;;;;;;;22.41;40.94;102169.22;7360889;19;19918;-57
2023/06/02 10:40:48;;;;;;;;;;;;;;;22.66;40.75;102168.88;7362192;19;20450;-57
2023/06/02 10:43:14;;;;;;;;;;;;;;;22.89;40.70;102175.72;7360005;19;19923;-56
2023/06/02 10:45:41;;;;;;;;;;;;;;;23.06;40.17;102178.38;7359710;19;19919;-56
2023/06/02 10:48:24;;;;;;;;;;;;;;;23.17;40.45;102176.03;7362298;19;19964;-57
2023/06/02 10:50:56;;;;;;;;;;;;;;;23.28;39.93;102170.13;7360956;19;19915;-56
2023/06/02 10:53:21;;;;;;;;;;;;;;;23.36;39.50;102175.91;7362578;19;19930;-57
2023/06/02 10:55:46;;;;;;;;;;;;;;;23.43;39.35;102177.31;7356458;19;20321;-56
2023/06/02 10:58:12;;;;;;;;;;;;;;;23.53;39.42;102177.69;7359048;19;19919;-57
2023/06/02 11:00:40;;;;;;;;;;;;;;;23.64;39.58;102187.81;7359047;19;19932;-57
2023/06/02 11:03:14;;;;;;;;;;;;;;;23.77;39.76;102186.19;7356635;19;19923;-56
2023/06/02 11:05:40;;;;;;;;;;;;;;;23.92;39.58;102189.81;7357464;19;20661;-57
2023/06/02 11:08:15;;;;;;;;;;;;;;;24.06;38.95;102189.91;7344449;19;19987;-57
2023/06/02 11:10:41;;;;;;;;;;;;;;;24.24;38.83;102190.72;7360460;19;20233;-61
2023/06/02 11:13:06;;;;;;;;;;;;;;;24.36;39.13;102183.84;7360715;19;19923;-61
2023/06/02 11:15:31;;;;;;;;;;;;;;;24.45;38.34;102186.84;7360504;19;19936;-60
2023/06/02 11:17:57;;;;;;;;;;;;;;;24.53;38.81;102175.69;7359238;19;19931;-61
2023/06/02 11:20:31;;;;;;;;;;;;;;;24.59;38.31;102186.06;7359297;19;19927;-61
2023/06/02 11:23:05;;;;;;;;;;;;;;;24.65;38.29;102180.34;7361124;19;19919;-60
2023/06/02 11:25:31;;;;;;;;;;;;;;;24.73;38.24;102187.88;7358313;19;20308;-60
2023/06/02 11:27:56;;;;;;;;;;;;;;;24.89;38.65;102177.16;7358621;19;19932;-61
2023/06/02 11:30:21;;;;;;;;;;;;;;;25.03;38.23;102185.22;7359316;19;19925;-61
2023/06/02 11:32:51;;;;;;;;;;;;;;;25.19;38.13;102179.81;7358143;19;19915;-61
2023/06/02 11:35:21;;;;;;;;;;;;;;;25.33;38.16;102171.81;7359728;19;19932;-60
2023/06/02 11:38:01;;;;;;;;;;;;;;;25.45;37.82;102173.75;7357621;19;19986;-61
2023/06/02 11:40:27;;;;;;;;;;;;;;;25.61;37.52;102165.63;7359373;19;19945;-61
2023/06/02 11:42:53;;;;;;;;;;;;;;;25.78;37.54;102177.97;7360236;19;19990;-61
2023/06/02 11:45:19;;;;;;;;;;;;;;;25.99;37.59;102165.88;7358199;19;19975;-62
2023/06/02 11:47:46;;;;;;;;;;;;;;;26.28;38.10;102165.81;7357501;19;19931;-61
2023/06/02 11:50:18;;;;;;;;;;;;;;;26.66;38.45;102160.59;7359111;19;19980;-60
2023/06/02 11:52:43;;;;;;;;;;;;;;;27.06;37.65;102163.25;7354599;19;19993;-61
2023/06/02 11:55:10;;;;;;;;;;;;;;;27.48;38.12;102164.78;7358773;19;20329;-61
2023/06/02 11:57:35;;;;;;;;;;;;;;;27.90;37.70;102157.31;7358141;19;20594;-60
2023/06/02 12:00:12;;;;;;;;;;;;;;;28.27;37.13;102159.97;7356439;19;19946;-61
2023/06/02 12:02:38;;;;;;;;;;;;;;;28.65;37.42;102155.31;7357843;19;20584;-62
2023/06/02 12:05:05;;;;;;;;;;;;;;;28.75;36.13;102114.28;7358413;19;19999;-61
2023/06/02 12:07:30;;;;;;;;;;;;;;;29.36;36.00;102148.00;7352786;19;19923;-61
2023/06/02 12:09:55;;;;;;;;;;;;;;;29.77;35.76;102156.47;7343028;19;20247;-61
2023/06/02 12:12:20;;;;;;;;;;;;;;;30.16;35.67;102152.34;7359845;19;19927;-61
2023/06/02 12:14:46;;;;;;;;;;;;;;;30.48;34.58;102153.22;7359324;19;19935;-61
2023/06/02 12:17:11;;;;;;;;;;;;;;;30.76;34.35;102159.00;7358985;19;19994;-61
2023/06/02 12:19:36;;;;;;;;;;;;;;;31.02;34.07;102156.75;7355909;19;19935;-61
2023/06/02 12:22:16;;;;;;;;;;;;;;;31.31;33.89;102158.78;7359292;19;19927;-61
2023/06/02 12:24:41;;;;;;;;;;;;;;;31.61;33.65;102153.38;7359601;19;20623;-61
2023/06/02 12:27:07;;;;;;;;;;;;;;;31.94;33.95;102160.31;7355226;19;19911;-61
2023/06/02 12:29:33;;;;;;;;;;;;;;;32.31;33.43;102162.34;7358220;19;19943;-62
2023/06/02 12:32:07;;;;;;;;;;;;;;;32.72;33.47;102157.69;7357359;19;19923;-61